Time;durP1;ratioP1;P1;durP2;ratioP2;P2;SDS_P1;SDS_P2;PMS_P1;PMS_P2;Temp;Humidity;BMP_temperature;BMP_pressure;BME280_temperature;BME280_humidity;BME280_pressure;Samples;Min_cycle;Max_cycle;Signal;HPM_P1;HPM_P2
2023/01/25 18:54:01;;;;;;;33.30;14.75;;;-0.40;99.90;;;-2.26;100.00;101863.22;5103105;27;20393;-77
2023/01/25 18:56:27;;;;;;;24.70;11.70;;;-0.40;99.90;;;-148.53;100.00;63986.66;5078283;28;20032;-76
2023/01/25 18:58:57;;;;;;;27.17;11.98;;;-0.50;99.90;;;-2.49;100.00;101854.91;5085729;28;20048;-77
2023/01/25 19:01:23;;;;;;;22.42;10.95;;;-0.60;99.90;;;-2.42;100.00;101851.81;5070332;28;20039;-78
2023/01/25 19:03:53;;;;;;;28.15;11.45;;;-0.60;99.90;;;-2.49;100.00;101849.56;5080353;28;20025;-77
2023/01/25 19:06:19;;;;;;;33.10;14.25;;;-0.60;99.90;;;-2.51;100.00;101839.94;5094301;28;20039;-77
2023/01/25 19:08:50;;;;;;;29.25;12.98;;;-0.60;99.90;;;-2.63;100.00;101821.09;5081315;28;20475;-77
2023/01/25 19:11:18;;;;;;;28.02;12.40;;;-0.60;99.90;;;-2.39;100.00;101838.25;5080505;28;20037;-77
2023/01/25 19:13:45;;;;;;;29.20;12.52;;;-0.60;99.90;;;-2.46;100.00;101833.31;5064551;28;20032;-77
2023/01/25 19:16:23;;;;;;;32.38;13.55;;;-0.60;99.90;;;-2.51;100.00;101821.25;5083282;28;20760;-77
2023/01/25 19:18:52;;;;;;;30.13;12.20;;;-0.60;99.90;;;-2.55;100.00;101817.91;5100264;28;20508;-79
2023/01/25 19:21:26;;;;;;;25.38;11.23;;;-0.60;99.90;;;-2.55;100.00;101815.25;5088064;28;20040;-78
2023/01/25 19:23:54;;;;;;;27.83;11.88;;;-0.70;99.90;;;-2.59;100.00;101824.41;5091012;28;20039;-79
2023/01/25 19:26:23;;;;;;;30.38;11.52;;;-0.70;99.90;;;-2.61;100.00;101831.69;5079178;28;20040;-76
2023/01/25 19:28:49;;;;;;;28.92;11.63;;;-0.70;99.90;;;-2.62;100.00;101827.31;5079394;28;21069;-75
2023/01/25 19:31:24;;;;;;;29.83;12.57;;;-0.70;99.90;;;-2.65;100.00;101825.69;5082491;28;20070;-75
2023/01/25 19:34:00;;;;;;;27.50;11.00;;;-0.70;99.90;;;-2.59;100.00;101821.75;5083123;28;20102;-76
2023/01/25 19:36:28;;;;;;;28.05;12.15;;;-0.70;99.90;;;-2.55;100.00;101819.72;5083918;28;20052;-77
2023/01/25 19:38:55;;;;;;;29.90;13.57;;;-0.70;99.90;;;-2.58;100.00;101807.44;5098095;28;20040;-74
2023/01/25 19:41:24;;;;;;;33.67;13.77;;;-0.70;99.90;;;-2.61;100.00;101807.63;5111527;28;20047;-76
2023/01/25 19:43:55;;;;;;;31.35;13.05;;;-0.70;99.90;;;-2.58;100.00;101804.75;5079666;28;20484;-76
2023/01/25 19:46:25;;;;;;;32.88;12.90;;;-0.70;99.90;;;-2.56;100.00;101809.97;5081832;28;20483;-74
2023/01/25 19:48:53;;;;;;;31.58;12.90;;;-0.70;99.90;;;-2.50;100.00;101813.09;5079742;28;20082;-76
2023/01/25 19:51:23;;;;;;;29.77;11.73;;;-0.60;99.90;;;-2.50;100.00;101810.44;5080350;28;20033;-76
2023/01/25 19:54:01;;;;;;;33.03;12.80;;;-0.70;99.90;;;-2.50;100.00;101805.09;5079541;28;20078;-75
2023/01/25 19:56:39;;;;;;;34.67;12.75;;;-0.60;99.90;;;-2.50;100.00;101791.72;5069947;28;20448;-75
2023/01/25 19:59:12;;;;;;;29.73;12.93;;;-0.60;99.90;;;-2.52;100.00;101790.97;5069554;28;20037;-75
2023/01/25 20:01:45;;;;;;;34.97;13.60;;;-0.70;99.90;;;-2.60;100.00;101785.28;5077437;28;20363;-77
2023/01/25 20:04:21;;;;;;;37.38;14.02;;;-0.70;99.90;;;-2.66;100.00;101788.34;5082056;28;20112;-76
2023/01/25 20:06:48;;;;;;;30.58;12.60;;;-0.70;99.90;;;-2.69;100.00;101804.59;5078908;28;20032;-76
2023/01/25 20:09:17;;;;;;;33.53;13.02;;;-0.80;99.90;;;-2.68;100.00;101796.50;5079240;28;20472;-76
2023/01/25 20:11:43;;;;;;;31.63;13.38;;;-0.80;99.90;;;-2.69;100.00;101788.56;5077642;28;20042;-76
2023/01/25 20:14:11;;;;;;;36.47;14.52;;;-0.80;99.90;;;-2.70;100.00;101786.84;5067295;28;20417;-77
2023/01/25 20:16:37;;;;;;;34.95;14.23;;;-0.80;99.90;;;-2.65;100.00;101788.25;5077296;28;20063;-76
2023/01/25 20:19:03;;;;;;;30.85;12.00;;;-0.80;99.90;;;-2.78;100.00;101777.53;5076997;28;20032;-75
2023/01/25 20:21:30;;;;;;;37.30;15.45;;;-0.80;99.90;;;-2.75;100.00;101776.50;5076536;28;20547;-75
2023/01/25 20:24:01;;;;;;;39.15;14.65;;;-0.80;99.90;;;-2.79;100.00;101777.63;5075278;28;20402;-75
2023/01/25 20:26:33;;;;;;;32.85;13.07;;;-0.90;99.90;;;-2.78;100.00;101774.03;5062549;28;20468;-75
2023/01/25 20:28:59;;;;;;;34.78;14.50;;;-0.90;99.90;;;-2.79;100.00;101770.47;5054546;28;20503;-75
2023/01/25 20:31:32;;;;;;;33.10;14.65;;;-0.90;99.90;;;-2.83;100.00;101776.13;5054120;28;20044;-75
2023/01/25 20:34:03;;;;;;;31.17;13.52;;;-0.90;99.90;;;-2.83;100.00;101776.13;5054307;28;20048;-75
2023/01/25 20:36:32;;;;;;;29.42;13.18;;;-1.00;99.90;;;-2.80;100.00;101775.91;5054809;28;20025;-76
2023/01/25 20:38:58;;;;;;;32.05;13.35;;;-0.90;99.90;;;-2.77;100.00;101781.91;5057704;28;20044;-75
2023/01/25 20:41:24;;;;;;;30.55;12.75;;;-0.90;99.90;;;-2.73;100.00;101779.91;5053583;28;20041;-75
2023/01/25 20:43:53;;;;;;;33.97;13.73;;;-0.90;99.90;;;-2.79;100.00;101770.47;5057889;28;20194;-75
2023/01/25 20:46:20;;;;;;;29.05;12.00;;;-0.90;99.90;;;-2.81;100.00;101780.41;5053922;28;20068;-75
2023/01/25 20:48:46;;;;;;;33.17;13.70;;;-0.90;99.90;;;-2.86;100.00;101779.88;5072371;28;20423;-75
2023/01/25 20:51:15;;;;;;;33.13;12.73;;;-1.00;99.90;;;-2.85;100.00;101772.69;5061793;28;20047;-75
2023/01/25 20:53:43;;;;;;;32.28;13.55;;;-1.00;99.90;;;-2.91;100.00;101773.97;5054202;28;20539;-75
2023/01/25 20:56:11;;;;;;;29.17;12.15;;;-1.00;99.90;;;-2.95;100.00;101780.44;5052987;28;20041;-75
2023/01/25 20:58:37;;;;;;;26.38;11.30;;;-1.10;99.90;;;-3.07;100.00;101769.63;5053969;28;20052;-75
2023/01/25 21:01:15;;;;;;;29.05;11.23;;;-1.10;99.90;;;-3.05;100.00;101773.06;5058312;28;20036;-75
2023/01/25 21:03:41;;;;;;;28.87;11.70;;;-1.10;99.90;;;-3.04;100.00;101765.91;5053865;28;20082;-75
2023/01/25 21:06:07;;;;;;;30.00;12.48;;;-1.10;99.90;;;-2.99;100.00;101760.25;5053122;28;20431;-73
2023/01/25 21:08:33;;;;;;;27.13;12.27;;;-1.10;99.90;;;-2.97;100.00;101761.88;5056160;28;20480;-73
2023/01/25 21:11:00;;;;;;;25.08;10.60;;;-1.10;99.90;;;-2.98;100.00;101757.50;5053992;28;20044;-75
2023/01/25 21:13:28;;;;;;;26.10;10.95;;;-1.10;99.90;;;-2.99;100.00;101762.91;5054012;28;20090;-75
2023/01/25 21:16:13;;;;;;;;;;;-1.10;99.90;;;-2.98;100.00;101762.84;5061803;28;20124;-74
2023/01/25 21:18:47;;;;;;;26.10;12.25;;;-1.10;99.90;;;-3.05;100.00;101762.38;5067478;28;20355;-74
2023/01/25 21:21:24;;;;;;;23.73;11.60;;;-1.10;99.90;;;-3.06;100.00;101752.66;5053727;28;20246;-73
2023/01/25 21:23:50;;;;;;;23.13;10.77;;;-1.10;99.90;;;-3.09;100.00;101734.16;5058452;28;20419;-74
2023/01/25 21:26:22;;;;;;;24.35;11.60;;;-1.10;99.90;;;-3.12;100.00;101746.84;5063198;28;20040;-73
2023/01/25 21:28:49;;;;;;;22.48;10.88;;;-1.20;99.90;;;-3.11;100.00;101741.41;5067629;28;20095;-72
2023/01/25 21:31:18;;;;;;;21.38;9.68;;;-1.20;99.90;;;-3.14;100.00;101744.28;5077009;28;20439;-74
2023/01/25 21:33:44;;;;;;;24.73;11.18;;;-1.20;99.90;;;-3.14;100.00;101736.28;5052085;28;20086;-74
2023/01/25 21:36:15;;;;;;;24.98;10.70;;;-1.20;99.90;;;-3.16;100.00;101732.88;5052348;28;20082;-73
2023/01/25 21:38:43;;;;;;;19.27;8.70;;;-1.20;99.90;;;-3.14;100.00;101732.75;5044820;28;20036;-74
2023/01/25 21:41:13;;;;;;;27.55;12.15;;;-1.20;99.90;;;-3.17;100.00;101739.16;5053455;28;20519;-74
2023/01/25 21:46:25;;;;;;;23.85;11.48;;;-1.30;99.90;;;-3.23;100.00;101742.19;5058769;28;20631;-73
2023/01/25 21:51:48;;;;;;;29.13;12.85;;;-1.30;99.90;;;-3.20;100.00;101731.31;5056667;28;20043;-74
2023/01/25 21:54:24;;;;;;;25.50;12.20;;;-1.30;99.90;;;-3.27;100.00;101732.69;5052139;28;20483;-73
2023/01/25 21:56:53;;;;;;;32.90;13.80;;;-1.30;99.90;;;-3.30;100.00;101741.75;5058249;28;20498;-73
2023/01/25 21:59:19;;;;;;;29.77;13.13;;;-1.30;99.90;;;-3.44;100.00;101726.66;5052661;28;20039;-73
2023/01/25 22:01:45;;;;;;;32.70;13.93;;;-1.40;99.90;;;-3.34;100.00;101746.44;5052492;28;20035;-73
2023/01/25 22:04:13;;;;;;;34.92;15.38;;;-1.40;99.90;;;-3.33;100.00;101733.94;5052525;28;20095;-73
2023/01/25 22:06:39;;;;;;;;;;;-1.40;99.90;;;-3.37;100.00;101725.28;5060036;28;20035;-73
2023/01/25 22:09:06;;;;;;;34.55;14.30;;;-1.50;99.90;;;-3.38;100.00;101738.72;5052534;28;19916;-72
2023/01/25 22:11:32;;;;;;;37.67;14.05;;;-1.40;99.90;;;-3.36;100.00;101735.00;5052838;28;20059;-73
2023/01/25 22:13:58;;;;;;;34.05;14.88;;;-1.50;99.90;;;-3.32;100.00;101736.50;5052651;28;20476;-73
2023/01/25 22:16:24;;;;;;;45.30;16.90;;;-1.40;99.90;;;-3.30;100.00;101733.75;5053840;28;20037;-73
2023/01/25 22:18:50;;;;;;;35.80;16.25;;;-1.40;99.90;;;-3.28;100.00;101737.19;5051962;28;20040;-73
2023/01/25 22:21:21;;;;;;;37.30;16.02;;;-1.40;99.90;;;-3.34;100.00;101735.75;5052232;28;20468;-73
2023/01/25 22:23:49;;;;;;;44.72;18.75;;;-1.40;99.90;;;-3.33;100.00;101740.13;5055840;28;20036;-74
2023/01/25 22:26:21;;;;;;;43.47;17.05;;;-1.40;99.90;;;-3.33;100.00;101729.47;5050236;28;20080;-73
2023/01/25 22:28:49;;;;;;;41.53;15.25;;;-1.40;99.90;;;-3.32;100.00;101730.31;5051732;28;20577;-72
2023/01/25 22:31:20;;;;;;;;;;;-1.40;99.90;;;-3.29;100.00;101737.28;5051987;28;20083;-72
2023/01/25 22:33:47;;;;;;;43.45;16.48;;;-1.40;99.90;;;-3.42;100.00;101730.06;5051404;28;20633;-72
2023/01/25 22:36:15;;;;;;;40.58;16.80;;;-1.50;99.90;;;-3.44;100.00;101731.97;5052004;28;20059;-72
2023/01/25 22:38:41;;;;;;;47.78;18.40;;;-1.50;99.90;;;-3.46;100.00;101723.19;5052452;28;20396;-72
2023/01/25 22:41:13;;;;;;;41.83;17.13;;;-1.50;99.90;;;-3.48;100.00;101717.09;5052495;28;20036;-72
2023/01/25 22:43:40;;;;;;;49.65;18.80;;;-1.60;99.90;;;-3.52;100.00;101719.13;5053736;28;20025;-72
2023/01/25 22:46:09;;;;;;;46.97;17.85;;;-1.60;99.90;;;-3.47;100.00;101724.16;5075422;28;20040;-72
2023/01/25 22:48:35;;;;;;;48.05;18.33;;;-1.60;99.90;;;-3.49;100.00;101721.59;5054499;28;20443;-72
2023/01/25 22:51:05;;;;;;;45.85;18.40;;;-1.60;99.90;;;-3.48;100.00;101720.63;5053633;28;20049;-72
2023/01/25 22:53:32;;;;;;;55.45;20.38;;;-1.50;99.90;;;-3.47;100.00;101714.34;5052597;28;20077;-72
2023/01/25 22:56:23;;;;;;;55.13;19.83;;;-1.50;99.90;;;-3.57;100.00;101691.88;5052211;28;20037;-73
2023/01/25 22:58:49;;;;;;;52.25;19.13;;;-1.60;99.90;;;-3.68;100.00;101702.38;5056664;28;20558;-72
2023/01/25 23:01:31;;;;;;;40.85;13.35;;;-1.70;99.90;;;-3.63;100.00;101711.81;5055475;28;20893;-72
2023/01/25 23:03:57;;;;;;;45.88;16.83;;;-1.70;99.90;;;-3.72;100.00;101720.38;5051423;28;20086;-72
2023/01/25 23:06:28;;;;;;;57.65;20.65;;;-1.70;99.90;;;-3.75;100.00;101709.91;5060039;28;20082;-71
2023/01/25 23:08:56;;;;;;;51.85;16.90;;;-1.80;99.90;;;-3.82;100.00;101705.91;5051391;28;20037;-72
2023/01/25 23:11:24;;;;;;;;;;;-1.80;99.90;;;-3.85;100.00;101698.94;5052428;28;20086;-72
2023/01/25 23:16:36;;;;;;;58.15;19.45;;;-1.90;99.90;;;-3.82;100.00;101692.56;5053080;28;20036;-73
2023/01/25 23:19:04;;;;;;;62.13;20.02;;;-1.90;99.90;;;-3.75;100.00;101696.56;5057656;28;20384;-73
2023/01/25 23:21:30;;;;;;;;;;;-1.90;99.90;;;-3.80;100.00;101688.00;5056168;28;20028;-72
2023/01/25 23:23:59;;;;;;;58.22;17.92;;;-1.80;99.90;;;-3.78;100.00;101680.75;5052017;28;19963;-73
2023/01/25 23:26:26;;;;;;;72.50;25.13;;;-1.80;99.90;;;-3.91;100.00;101672.69;5052109;28;20383;-72
2023/01/25 23:28:55;;;;;;;71.85;21.75;;;-1.90;99.90;;;-3.87;100.00;101652.03;5063407;28;20040;-72
2023/01/25 23:31:23;;;;;;;67.88;20.70;;;-1.90;99.90;;;-3.75;100.00;101661.88;5057479;28;20053;-72
2023/01/25 23:33:58;;;;;;;77.07;23.17;;;-1.80;99.90;;;-3.84;100.00;101655.34;5052502;28;20037;-72
2023/01/25 23:36:34;;;;;;;71.85;24.48;;;-1.80;99.90;;;-3.72;100.00;101656.34;5051889;28;20041;-72
2023/01/25 23:39:00;;;;;;;73.80;23.55;;;-1.80;99.90;;;-3.82;100.00;101653.44;5052717;28;20047;-72
2023/01/25 23:41:28;;;;;;;82.75;26.48;;;-1.90;99.90;;;-3.91;100.00;101654.88;5055874;28;20395;-72
2023/01/25 23:43:56;;;;;;;73.40;24.25;;;-1.90;99.90;;;-3.97;100.00;101651.75;5055534;28;20033;-72
2023/01/25 23:46:23;;;;;;;79.90;24.67;;;-2.00;99.90;;;-3.99;100.00;101651.81;5070442;28;20044;-72
2023/01/25 23:48:49;;;;;;;86.82;25.77;;;-2.00;99.90;;;-4.00;100.00;101647.44;5054845;28;20025;-73
2023/01/25 23:51:16;;;;;;;75.13;25.80;;;-2.00;99.90;;;-4.03;100.00;101642.31;5054873;28;20318;-73
2023/01/25 23:53:43;;;;;;;69.75;22.65;;;-2.10;99.90;;;-3.98;100.00;101644.69;5055108;28;20483;-73
2023/01/25 23:56:13;;;;;;;;;;;-2.00;99.90;;;-4.02;100.00;101644.03;5055357;28;20087;-72
2023/01/25 23:58:39;;;;;;;85.50;22.60;;;-2.10;99.90;;;-3.97;100.00;101633.94;5055285;28;20417;-71
